HND - Henderson Exec

Pirep is a free, collaborative database of all public and private airports located within the United States. All pilots are welcome to contribute, edit, and improve any airport they have local knowledge about, no registration required.
Uploaded photos will be licensed under a CC BY-SA 4.0 license. Please only upload photos you have the rights to use.
Tags
Public
Food
METAR / TAF
Edit Tags
Camping
Lodging
Car Rental
Bicycles
Swimming
Golfing
Fishing
Hot Springs
Museum
Flying Clubs
Airpark
Upcoming Events
No upcoming events. Is anything happening here soon?
*
*
*

Where exactly on/near the airport is this event taking place?

Is there a webpage with more information for this event?

Who should be contacted for more information?

What is this event all about?

Repeat every
Description
Last updated: 2023-05-30 20:46:52 PDT
Transient Parking
Fuel Location
Landing & Tie-down Fees
Crew Car Availability
Flying Clubs
WiFi Access
Airport Statistics
Location: Las Vegas, NV
Elevation: 2,491ft
Sectional: Las Vegas
Activation date: Oct 1970
Fuel: 100LL, A (prices)
Runway 17R/35L: 6,501ft
Runway 17L/35R: 5,001ft
Access: Open to the public
Current Weather — VFR
  • Weather data is strictly informational and not for flight planning purposes.
  • METAR
    2024-05-29 10:56:00 PDT
    Ceiling Wind Temperature Dewpoint Weather Visbility
    Sky clear 70° @ 5kt 87°F 33°F N/A 10SM
    Raw: KHND 291756Z 07005KT 10SM CLR 31/01 A2996 RMK AO2 SLP131 T03110011 10311 20211 50003
  • TAF
    2024-05-29 11:00:00 PDT – 2024-05-29 15:00:00 PDT
    Ceiling Wind Weather Visbility
    Sky clear Variable N/A 6SM
    Clouds: @ ft
    Raw: KHND 291728Z 2918/3018 VRB05KT P6SM SKC FM292200 24010G18KT P6SM FEW150 FM300400 24008KT P6SM SKC FM301500 02008KT P6SM SKC
  • TAF
    2024-05-29 15:00:00 PDT – 2024-05-29 21:00:00 PDT
    Ceiling Wind Weather Visbility
    Sky clear 240° @ 10kt, gusts 18kt N/A 6SM
    Clouds: Few @ 15,000ft
    Raw: KHND 291728Z 2918/3018 VRB05KT P6SM SKC FM292200 24010G18KT P6SM FEW150 FM300400 24008KT P6SM SKC FM301500 02008KT P6SM SKC
  • TAF
    2024-05-29 21:00:00 PDT – 2024-05-30 08:00:00 PDT
    Ceiling Wind Weather Visbility
    Sky clear 240° @ 8kt N/A 6SM
    Clouds: @ ft
    Raw: KHND 291728Z 2918/3018 VRB05KT P6SM SKC FM292200 24010G18KT P6SM FEW150 FM300400 24008KT P6SM SKC FM301500 02008KT P6SM SKC
  • TAF
    2024-05-30 08:00:00 PDT – 2024-05-30 11:00:00 PDT
    Ceiling Wind Weather Visbility
    Sky clear 20° @ 8kt N/A 6SM
    Clouds: @ ft
    Raw: KHND 291728Z 2918/3018 VRB05KT P6SM SKC FM292200 24010G18KT P6SM FEW150 FM300400 24008KT P6SM SKC FM301500 02008KT P6SM SKC
Click/tap to add an annotation marker to the map
Airport Webcams
No webcams added yet.
Direct links to live image URLs will be displayed inline on this page. URLs to separate webpages will be linked to.
URL:
Direct links to live image URLs will be displayed inline on this page. URLs to separate webpages will be linked to.
URL:
Remarks
  • Coml air tour tfc arr fm se dalgt hr.
  • Ctn: acft dep rwy 17r or 35l must vfy psn on rwy not on parl twy.
  • For cd when atct clsd ctc las apch on 125.475 or ph 725-200-4432.
  • When spl event prkg ppr program notam is actv, tsnt acft opers not perm based need to obtain a ppr nr fm an fbo for ea ldg. ppr appvl & confirmation nrs can be obtained fm the sel fbo at 702-261-7775. ppr confirmation nrs should be entered in the rmks section of each flt plan.
  • Actvt reil rwy 17r & 35l, 17l & 35r; papi rwy 17r & 35l, 17l & 35r; mirl rwy 17r/35l, 17l/35r - ctaf.
Comments
Leave a comment What was your experience like at this airport?